createdAt,value
2023-11-21T00:00:13.001Z,0.70
2023-11-21T00:02:42.152Z,0.60
2023-11-21T00:05:15.329Z,0.80
2023-11-21T00:07:43.286Z,0.70
2023-11-21T00:10:12.178Z,0.70
2023-11-21T00:12:39.162Z,1.10
2023-11-21T00:15:12.220Z,1.00
2023-11-21T00:17:39.794Z,1.17
2023-11-21T00:20:08.029Z,1.23
2023-11-21T00:22:37.850Z,1.08
2023-11-21T00:25:05.262Z,0.95
2023-11-21T00:27:32.127Z,0.90
2023-11-21T00:29:59.090Z,0.98
2023-11-21T00:32:25.838Z,1.10
2023-11-21T00:34:52.547Z,0.77
2023-11-21T00:37:19.297Z,1.13
2023-11-21T00:39:46.441Z,1.20
2023-11-21T00:42:13.132Z,0.93
2023-11-21T00:44:40.628Z,0.93
2023-11-21T00:47:07.517Z,1.02
2023-11-21T00:49:41.576Z,1.10
2023-11-21T00:52:09.686Z,0.90
2023-11-21T00:54:37.059Z,1.10
2023-11-21T00:57:05.349Z,1.05
2023-11-21T00:59:32.425Z,0.90
2023-11-21T01:02:01.651Z,0.80
2023-11-21T01:04:28.601Z,0.98
2023-11-21T01:06:55.262Z,1.10
2023-11-21T01:09:21.973Z,1.10
2023-11-21T01:11:48.755Z,1.00
2023-11-21T01:14:15.664Z,1.20
2023-11-21T01:16:42.531Z,0.95
2023-11-21T01:19:10.618Z,0.90
2023-11-21T01:21:37.463Z,0.98
2023-11-21T01:24:06.415Z,1.20
2023-11-21T01:26:33.270Z,0.85
2023-11-21T01:29:00.345Z,1.35
2023-11-21T01:31:30.721Z,0.90
2023-11-21T01:33:57.709Z,1.10
2023-11-21T01:36:24.445Z,0.90
2023-11-21T01:38:51.134Z,1.10
2023-11-21T01:41:18.500Z,0.90
2023-11-21T01:43:45.328Z,0.73
2023-11-21T01:46:12.109Z,0.93
2023-11-21T01:48:39.708Z,1.00
2023-11-21T01:51:07.038Z,1.27
2023-11-21T01:53:34.147Z,1.27
2023-11-21T01:56:00.986Z,1.10
2023-11-21T01:58:27.874Z,1.10
2023-11-21T02:00:56.234Z,1.30
2023-11-21T02:03:23.186Z,1.50
2023-11-21T02:05:49.929Z,1.00
2023-11-21T02:08:16.829Z,1.02
2023-11-21T02:10:44.486Z,0.98
2023-11-21T02:13:12.147Z,1.00
2023-11-21T02:15:39.680Z,1.00
2023-11-21T02:18:07.414Z,1.02
2023-11-21T02:20:36.205Z,0.80
2023-11-21T02:23:04.357Z,0.88
2023-11-21T02:25:33.470Z,1.05
2023-11-21T02:28:02.143Z,0.82
2023-11-21T02:30:29.681Z,2.08
2023-11-21T02:32:59.953Z,0.88
2023-11-21T02:35:27.215Z,1.00
2023-11-21T02:37:54.988Z,0.95
2023-11-21T02:40:22.436Z,0.90
2023-11-21T02:42:52.174Z,0.82
2023-11-21T02:45:25.468Z,0.70
2023-11-21T02:47:54.448Z,0.68
2023-11-21T02:50:21.633Z,0.55
2023-11-21T02:52:48.567Z,0.70
2023-11-21T02:55:15.630Z,0.90
2023-11-21T02:57:42.840Z,0.80
2023-11-21T03:00:15.984Z,0.85
2023-11-21T03:02:43.523Z,0.88
2023-11-21T03:05:11.076Z,1.42
2023-11-21T03:07:39.539Z,0.88
2023-11-21T03:10:10.409Z,0.88
2023-11-21T03:12:41.228Z,1.08
2023-11-21T03:15:08.894Z,1.48
2023-11-21T03:17:35.996Z,1.30
2023-11-21T03:20:06.002Z,1.02
2023-11-21T03:22:33.201Z,1.00
2023-11-21T03:25:00.009Z,0.95
2023-11-21T03:27:27.556Z,0.80
2023-11-21T03:29:55.587Z,1.20
2023-11-21T03:32:22.465Z,0.85
2023-11-21T03:35:00.046Z,1.00
2023-11-21T03:37:29.131Z,0.95
2023-11-21T03:39:58.889Z,1.30
2023-11-21T03:42:28.557Z,1.42
2023-11-21T03:44:55.547Z,0.93
2023-11-21T03:47:22.648Z,1.08
2023-11-21T03:49:49.411Z,1.40
2023-11-21T03:52:17.042Z,1.05
2023-11-21T03:54:44.483Z,1.00
2023-11-21T03:57:11.539Z,1.25
2023-11-21T03:59:41.262Z,0.77
2023-11-21T04:02:08.816Z,2.58
2023-11-21T04:04:36.744Z,0.95
2023-11-21T04:07:04.065Z,1.15
2023-11-21T04:09:30.818Z,1.10
2023-11-21T04:11:57.486Z,1.63
2023-11-21T04:14:25.355Z,1.17
2023-11-21T04:16:52.182Z,1.33
2023-11-21T04:19:19.220Z,1.00
2023-11-21T04:21:46.273Z,1.50
2023-11-21T04:24:13.116Z,1.10
2023-11-21T04:26:39.897Z,1.17
2023-11-21T04:29:06.776Z,1.75
2023-11-21T04:31:33.499Z,1.75
2023-11-21T04:34:00.437Z,2.03
2023-11-21T04:36:27.229Z,1.40
2023-11-21T04:38:53.945Z,1.30
2023-11-21T04:41:20.954Z,2.17
2023-11-21T04:43:47.823Z,1.30
2023-11-21T04:46:14.717Z,1.23
2023-11-21T04:48:41.623Z,1.20
2023-11-21T04:51:08.454Z,1.50
2023-11-21T04:53:36.077Z,1.98
2023-11-21T04:56:02.819Z,1.23
2023-11-21T04:58:29.551Z,1.83
2023-11-21T05:00:56.266Z,1.05
2023-11-21T05:03:25.068Z,1.55
2023-11-21T05:05:52.074Z,1.90
2023-11-21T05:08:20.067Z,1.60
2023-11-21T05:10:46.881Z,1.50
2023-11-21T05:13:13.934Z,1.70
2023-11-21T05:15:40.905Z,2.10
2023-11-21T05:18:07.994Z,1.90
2023-11-21T05:20:34.817Z,1.85
2023-11-21T05:23:01.551Z,1.20
2023-11-21T05:25:28.596Z,1.42
2023-11-21T05:28:02.289Z,1.60
2023-11-21T05:30:29.131Z,1.90
2023-11-21T05:32:55.780Z,1.48
2023-11-21T05:35:22.578Z,2.17
2023-11-21T05:37:49.408Z,1.88
2023-11-21T05:40:17.061Z,2.15
2023-11-21T05:42:46.240Z,1.88
2023-11-21T05:45:13.763Z,1.92
2023-11-21T05:47:43.682Z,2.92
2023-11-21T05:50:13.682Z,2.03
2023-11-21T05:52:43.324Z,1.77
2023-11-21T05:55:10.112Z,2.10
2023-11-21T05:57:38.219Z,2.28
2023-11-21T06:00:27.174Z,1.80
2023-11-21T06:02:58.551Z,2.20
2023-11-21T06:07:55.680Z,2.72
2023-11-21T06:10:25.437Z,2.38
2023-11-21T06:12:53.291Z,1.88
2023-11-21T06:15:21.674Z,2.95
2023-11-21T06:17:53.062Z,1.98
2023-11-21T06:20:20.071Z,2.30
2023-11-21T06:22:48.664Z,2.35
2023-11-21T06:25:15.718Z,2.63
2023-11-21T06:27:47.173Z,2.47
2023-11-21T06:30:15.372Z,2.17
2023-11-21T06:32:43.273Z,2.75
2023-11-21T06:35:11.346Z,2.58
2023-11-21T06:37:38.931Z,2.60
2023-11-21T06:40:07.389Z,2.42
2023-11-21T06:42:39.418Z,2.22
2023-11-21T06:45:06.675Z,2.00
2023-11-21T06:47:33.666Z,2.08
2023-11-21T06:50:01.676Z,2.35
2023-11-21T06:52:28.468Z,2.58
2023-11-21T06:54:55.875Z,2.33
2023-11-21T06:57:24.684Z,2.42
2023-11-21T06:59:53.169Z,3.35
2023-11-21T07:02:22.230Z,2.33
2023-11-21T07:04:49.024Z,2.17
2023-11-21T07:07:15.850Z,2.40
2023-11-21T07:09:42.563Z,2.55
2023-11-21T07:12:09.423Z,2.20
2023-11-21T07:14:36.334Z,2.90
2023-11-21T07:17:03.222Z,3.05
2023-11-21T07:19:30.361Z,2.60
2023-11-21T07:21:57.488Z,3.95
2023-11-21T07:24:26.046Z,6.00
2023-11-21T07:26:58.014Z,5.78
2023-11-21T07:29:27.069Z,5.03
2023-11-21T07:31:54.687Z,4.55
2023-11-21T07:34:22.781Z,3.25
2023-11-21T07:36:49.485Z,4.07
2023-11-21T07:39:17.576Z,4.32
2023-11-21T07:41:50.328Z,5.07
2023-11-21T07:44:18.766Z,5.18
2023-11-21T07:46:45.759Z,5.60
2023-11-21T07:49:17.010Z,4.88
2023-11-21T07:54:12.065Z,5.35
2023-11-21T07:56:38.883Z,4.93
2023-11-21T07:59:05.773Z,3.97
2023-11-21T08:01:33.068Z,3.97
2023-11-21T08:04:03.128Z,3.08
2023-11-21T08:06:31.892Z,2.83
2023-11-21T08:09:01.828Z,3.05
2023-11-21T08:11:30.919Z,3.67
2023-11-21T08:13:58.018Z,3.70
2023-11-21T08:16:25.433Z,3.45
2023-11-21T08:18:52.452Z,3.10
2023-11-21T08:21:20.228Z,3.47
2023-11-21T08:23:47.649Z,3.05
2023-11-21T08:26:17.864Z,3.35
2023-11-21T08:28:44.743Z,3.95
2023-11-21T08:31:13.305Z,3.42
2023-11-21T08:33:41.130Z,3.40
2023-11-21T08:36:14.903Z,4.00
2023-11-21T08:38:42.172Z,4.35
2023-11-21T08:41:09.235Z,4.53
2023-11-21T08:43:36.710Z,4.35
2023-11-21T08:46:04.189Z,5.25
2023-11-21T08:48:31.065Z,4.00
2023-11-21T08:50:57.821Z,4.15
2023-11-21T08:53:24.506Z,4.10
2023-11-21T08:55:51.305Z,4.30
2023-11-21T08:58:18.377Z,4.47
2023-11-21T09:00:47.427Z,4.40
2023-11-21T09:03:14.532Z,3.75
2023-11-21T09:05:41.481Z,5.30
2023-11-21T09:08:08.342Z,3.80
2023-11-21T09:10:38.511Z,4.45
2023-11-21T09:13:05.210Z,3.83
2023-11-21T09:15:31.825Z,3.50
2023-11-21T09:17:58.588Z,3.40
2023-11-21T09:20:25.249Z,3.28
2023-11-21T09:22:51.903Z,3.10
2023-11-21T09:25:19.759Z,2.80
2023-11-21T09:27:47.205Z,3.88
2023-11-21T09:30:15.423Z,2.95
2023-11-21T09:32:42.427Z,3.05
2023-11-21T09:35:09.734Z,2.78
2023-11-21T09:37:39.264Z,2.90
2023-11-21T09:40:15.434Z,2.42
2023-11-21T09:42:54.333Z,2.63
2023-11-21T09:45:30.489Z,3.20
2023-11-21T09:47:58.452Z,3.00
2023-11-21T09:50:27.228Z,2.80
2023-11-21T09:53:14.260Z,2.58
2023-11-21T09:55:45.008Z,2.70
2023-11-21T09:58:15.165Z,2.22
2023-11-21T10:00:48.916Z,2.75
2023-11-21T10:03:16.751Z,1.88
2023-11-21T10:05:45.419Z,1.50
2023-11-21T10:08:13.023Z,1.38
2023-11-21T10:10:45.906Z,1.80
2023-11-21T10:13:17.735Z,2.15
2023-11-21T10:15:49.960Z,2.83
2023-11-21T10:18:17.568Z,3.53
2023-11-21T10:20:47.511Z,3.53
2023-11-21T10:23:15.812Z,4.50
2023-11-21T10:25:42.761Z,4.30
2023-11-21T10:28:11.567Z,4.15
2023-11-21T10:30:41.209Z,4.20
2023-11-21T10:33:12.313Z,4.65
2023-11-21T10:35:54.685Z,5.18
2023-11-21T10:38:25.429Z,4.28
2023-11-21T10:40:53.015Z,4.47
2023-11-21T10:43:20.032Z,4.38
2023-11-21T10:45:46.988Z,5.15
2023-11-21T10:48:18.774Z,5.38
2023-11-21T10:50:47.820Z,5.40
2023-11-21T10:53:14.938Z,5.72
2023-11-21T10:55:42.301Z,4.45
2023-11-21T10:58:12.076Z,5.20
2023-11-21T11:00:41.183Z,4.88
2023-11-21T11:03:14.709Z,5.13
2023-11-21T11:05:41.964Z,5.15
2023-11-21T11:08:14.222Z,4.53
2023-11-21T11:10:40.928Z,5.07
2023-11-21T11:13:08.161Z,4.88
2023-11-21T11:15:34.931Z,4.50
2023-11-21T11:18:02.388Z,3.67
2023-11-21T11:20:35.518Z,3.92
2023-11-21T11:23:13.891Z,3.95
2023-11-21T11:26:08.443Z,3.20
2023-11-21T11:29:08.131Z,3.20
2023-11-21T11:31:44.145Z,2.80
2023-11-21T11:34:13.509Z,3.03
2023-11-21T11:37:03.823Z,3.17
2023-11-21T11:39:38.497Z,3.42
2023-11-21T11:42:08.427Z,3.50
2023-11-21T11:44:47.871Z,4.20
2023-11-21T11:47:21.368Z,3.30
2023-11-21T11:50:17.904Z,3.75
2023-11-21T11:52:45.677Z,3.58
2023-11-21T11:55:21.631Z,3.55
2023-11-21T12:00:27.847Z,4.53
2023-11-21T12:03:05.368Z,3.63
2023-11-21T12:05:36.513Z,3.50
2023-11-21T12:08:08.466Z,4.18
2023-11-21T12:10:40.972Z,5.07
2023-11-21T12:13:09.786Z,5.22
2023-11-21T12:15:38.139Z,4.45
2023-11-21T12:18:06.728Z,4.53
2023-11-21T12:20:39.411Z,4.80
2023-11-21T12:23:07.022Z,4.20
2023-11-21T12:25:34.278Z,4.00
2023-11-21T12:28:01.782Z,4.35
2023-11-21T12:30:32.028Z,4.40
2023-11-21T12:33:01.790Z,4.47
2023-11-21T12:35:31.245Z,4.25
2023-11-21T12:38:00.875Z,4.22
2023-11-21T12:40:33.645Z,4.70
2023-11-21T12:43:02.493Z,5.60
2023-11-21T12:45:31.950Z,5.13
2023-11-21T12:48:09.003Z,5.18
2023-11-21T12:50:37.689Z,5.53
2023-11-21T12:53:13.627Z,5.50
2023-11-21T12:55:41.357Z,9.05
2023-11-21T12:58:14.769Z,5.30
2023-11-21T13:00:45.648Z,5.28
2023-11-21T13:03:17.132Z,5.50
2023-11-21T13:05:53.116Z,4.75
2023-11-21T13:08:23.453Z,5.32
2023-11-21T13:10:58.919Z,5.57
2023-11-21T13:13:29.434Z,4.72
2023-11-21T13:16:07.208Z,6.25
2023-11-21T13:21:11.143Z,5.88
2023-11-21T13:23:38.988Z,5.30
2023-11-21T13:26:07.598Z,5.07
2023-11-21T13:28:35.894Z,4.43
2023-11-21T13:31:11.523Z,4.85
2023-11-21T13:33:44.055Z,5.32
2023-11-21T13:36:11.914Z,5.70
2023-11-21T13:38:43.561Z,5.35
2023-11-21T13:41:11.540Z,5.25
2023-11-21T13:43:39.233Z,5.93
2023-11-21T13:46:14.673Z,5.07
2023-11-21T13:48:51.653Z,5.35
2023-11-21T13:51:18.736Z,5.25
2023-11-21T13:53:49.229Z,6.05
2023-11-21T13:56:20.800Z,6.03
2023-11-21T13:58:54.038Z,6.43
2023-11-21T14:01:31.850Z,5.72
2023-11-21T14:04:18.474Z,5.75
2023-11-21T14:06:53.053Z,5.05
2023-11-21T14:09:27.145Z,5.82
2023-11-21T14:11:57.497Z,5.63
2023-11-21T14:14:29.079Z,5.32
2023-11-21T14:16:58.395Z,5.43
2023-11-21T14:19:35.641Z,5.55
2023-11-21T14:22:02.422Z,5.65
2023-11-21T14:24:30.786Z,5.53
2023-11-21T14:26:57.569Z,5.03
2023-11-21T14:29:25.075Z,4.65
2023-11-21T14:31:54.558Z,4.10
2023-11-21T14:34:23.408Z,4.72
2023-11-21T14:36:53.350Z,5.00
2023-11-21T14:39:28.773Z,4.90
2023-11-21T14:42:00.676Z,4.20
2023-11-21T14:44:30.171Z,4.20
2023-11-21T14:46:59.046Z,4.22
2023-11-21T14:49:28.943Z,3.47
2023-11-21T14:52:19.264Z,4.68
2023-11-21T14:54:47.619Z,3.75
2023-11-21T14:57:22.522Z,3.30
2023-11-21T14:59:53.505Z,2.80
2023-11-21T15:02:45.533Z,3.20
2023-11-21T15:05:16.346Z,3.80
2023-11-21T15:07:43.124Z,3.38
2023-11-21T15:10:15.678Z,3.75
2023-11-21T15:12:44.883Z,3.67
2023-11-21T15:15:12.089Z,3.13
2023-11-21T15:17:41.041Z,3.50
2023-11-21T15:20:09.835Z,4.97
2023-11-21T15:22:36.962Z,3.92
2023-11-21T15:25:10.660Z,4.03
2023-11-21T15:27:42.677Z,3.85
2023-11-21T15:30:09.871Z,4.70
2023-11-21T15:32:36.818Z,3.90
2023-11-21T15:35:04.066Z,3.65
2023-11-21T15:37:30.765Z,4.35
2023-11-21T15:39:57.590Z,3.80
2023-11-21T15:42:24.767Z,3.40
2023-11-21T15:44:52.434Z,4.13
2023-11-21T15:47:20.059Z,4.63
2023-11-21T15:49:49.335Z,3.28
2023-11-21T15:52:18.295Z,4.53
2023-11-21T15:54:47.201Z,4.57
2023-11-21T15:57:18.316Z,4.32
2023-11-21T15:59:46.380Z,3.85
2023-11-21T16:02:13.659Z,3.55
2023-11-21T16:04:41.737Z,3.78
2023-11-21T16:07:08.827Z,4.28
2023-11-21T16:09:35.888Z,4.25
2023-11-21T16:12:04.846Z,3.53
2023-11-21T16:14:37.925Z,4.03
2023-11-21T16:17:05.204Z,4.00
2023-11-21T16:19:32.190Z,3.28
2023-11-21T16:21:59.120Z,3.42
2023-11-21T16:24:28.780Z,3.45
2023-11-21T16:26:56.974Z,3.83
2023-11-21T16:29:24.225Z,3.22
2023-11-21T16:31:53.466Z,3.20
2023-11-21T16:34:23.797Z,3.30
2023-11-21T16:36:54.162Z,3.08
2023-11-21T16:39:23.204Z,3.00
2023-11-21T16:41:50.359Z,2.45
2023-11-21T16:44:19.135Z,2.80
2023-11-21T16:46:48.401Z,2.15
2023-11-21T16:49:15.377Z,2.58
2023-11-21T16:51:42.170Z,2.42
2023-11-21T16:54:09.776Z,4.22
2023-11-21T16:56:39.033Z,2.58
2023-11-21T16:59:05.776Z,2.00
2023-11-21T17:01:32.537Z,2.13
2023-11-21T17:04:00.130Z,1.65
2023-11-21T17:06:28.166Z,2.08
2023-11-21T17:08:56.516Z,1.95
2023-11-21T17:11:23.298Z,1.80
2023-11-21T17:13:50.219Z,1.27
2023-11-21T17:16:17.877Z,1.17
2023-11-21T17:18:44.585Z,1.10
2023-11-21T17:21:19.447Z,1.38
2023-11-21T17:23:49.436Z,1.13
2023-11-21T17:26:17.172Z,1.00
2023-11-21T17:28:44.478Z,1.17
2023-11-21T17:31:11.457Z,1.30
2023-11-21T17:33:39.682Z,1.40
2023-11-21T17:36:09.289Z,1.40
2023-11-21T17:38:38.115Z,2.35
2023-11-21T17:41:05.761Z,2.03
2023-11-21T17:43:40.608Z,1.65
2023-11-21T17:46:09.316Z,2.00
2023-11-21T17:48:39.232Z,1.58
2023-11-21T17:51:10.148Z,1.73
2023-11-21T17:53:36.852Z,2.38
2023-11-21T17:56:03.685Z,1.83
2023-11-21T17:58:30.491Z,1.83
2023-11-21T18:00:57.261Z,3.00
2023-11-21T18:03:26.339Z,2.13
2023-11-21T18:05:55.847Z,2.10
2023-11-21T18:08:22.674Z,2.10
2023-11-21T18:10:49.539Z,1.77
2023-11-21T18:13:16.510Z,2.42
2023-11-21T18:15:43.891Z,2.47
2023-11-21T18:18:10.636Z,2.33
2023-11-21T18:20:37.339Z,1.95
2023-11-21T18:23:10.428Z,1.85
2023-11-21T18:25:39.739Z,1.98
2023-11-21T18:28:06.373Z,2.05
2023-11-21T18:30:33.098Z,1.75
2023-11-21T18:33:00.387Z,1.98
2023-11-21T18:35:27.338Z,1.90
2023-11-21T18:37:54.038Z,2.00
2023-11-21T18:40:20.909Z,1.30
2023-11-21T18:42:47.865Z,1.83
2023-11-21T18:45:17.365Z,1.30
2023-11-21T18:47:44.165Z,1.63
2023-11-21T18:50:18.499Z,1.42
2023-11-21T18:52:46.302Z,1.50
2023-11-21T18:55:13.141Z,1.40
2023-11-21T18:57:41.180Z,1.42
2023-11-21T19:00:13.406Z,1.35
2023-11-21T19:02:41.549Z,1.33
2023-11-21T19:05:09.336Z,1.10
2023-11-21T19:07:37.603Z,1.17
2023-11-21T19:10:06.256Z,1.40
2023-11-21T19:12:37.191Z,1.02
2023-11-21T19:15:05.280Z,1.40
2023-11-21T19:17:33.782Z,1.20
2023-11-21T19:20:00.775Z,1.10
2023-11-21T19:22:28.460Z,0.88
2023-11-21T19:24:55.643Z,1.10
2023-11-21T19:27:22.307Z,0.77
2023-11-21T19:29:49.235Z,0.90
2023-11-21T19:32:16.263Z,0.80
2023-11-21T19:34:43.165Z,0.90
2023-11-21T19:37:10.114Z,1.00
2023-11-21T19:39:38.353Z,0.80
2023-11-21T19:42:05.604Z,0.70
2023-11-21T19:44:33.462Z,0.80
2023-11-21T19:47:00.423Z,0.82
2023-11-21T19:49:27.143Z,0.90
2023-11-21T19:51:53.774Z,0.90
2023-11-21T19:54:20.627Z,0.98
2023-11-21T19:56:47.623Z,1.25
2023-11-21T19:59:15.985Z,0.93
2023-11-21T20:01:44.078Z,1.13
2023-11-21T20:04:11.372Z,1.08
2023-11-21T20:06:48.512Z,1.30
2023-11-21T20:09:18.278Z,1.73
2023-11-21T20:11:47.884Z,1.27
2023-11-21T20:14:15.003Z,1.33
2023-11-21T20:16:42.270Z,1.20
2023-11-21T20:19:12.142Z,1.70
2023-11-21T20:21:40.280Z,1.67
2023-11-21T20:24:07.709Z,1.70
2023-11-21T20:26:34.989Z,1.80
2023-11-21T20:29:01.753Z,1.77
2023-11-21T20:31:28.366Z,1.67
2023-11-21T20:33:55.085Z,1.50
2023-11-21T20:36:21.727Z,1.60
2023-11-21T20:38:51.422Z,1.63
2023-11-21T20:41:18.981Z,1.90
2023-11-21T20:43:45.762Z,1.70
2023-11-21T20:46:12.616Z,1.75
2023-11-21T20:48:39.341Z,1.95
2023-11-21T20:51:06.096Z,1.52
2023-11-21T20:53:33.310Z,1.83
2023-11-21T20:56:02.558Z,2.05
2023-11-21T20:58:29.614Z,2.00
2023-11-21T21:00:56.330Z,2.05
2023-11-21T21:03:23.549Z,2.05
2023-11-21T21:05:50.467Z,2.38
2023-11-21T21:08:17.229Z,2.28
2023-11-21T21:10:44.079Z,1.80
2023-11-21T21:13:12.982Z,2.05
2023-11-21T21:15:40.502Z,2.25
2023-11-21T21:18:08.595Z,1.73
2023-11-21T21:20:37.075Z,1.90
2023-11-21T21:23:03.844Z,1.98
2023-11-21T21:25:31.349Z,2.05
2023-11-21T21:27:57.973Z,2.17
2023-11-21T21:30:28.650Z,2.53
2023-11-21T21:32:58.365Z,2.33
2023-11-21T21:35:29.392Z,3.00
2023-11-21T21:37:59.395Z,2.90
2023-11-21T21:40:30.579Z,3.08
2023-11-21T21:43:00.972Z,3.20
2023-11-21T21:45:28.732Z,3.33
2023-11-21T21:47:55.886Z,4.20
2023-11-21T21:50:25.752Z,4.10
2023-11-21T21:52:52.587Z,3.60
2023-11-21T21:55:19.388Z,3.90
2023-11-21T21:57:46.677Z,3.67
2023-11-21T22:00:16.796Z,3.63
2023-11-21T22:02:43.995Z,4.25
2023-11-21T22:05:12.943Z,3.88
2023-11-21T22:07:41.247Z,4.57
2023-11-21T22:10:09.447Z,3.72
2023-11-21T22:12:36.734Z,4.03
2023-11-21T22:15:05.714Z,4.25
2023-11-21T22:17:32.601Z,4.45
2023-11-21T22:19:59.391Z,4.18
2023-11-21T22:22:27.887Z,4.15
2023-11-21T22:24:54.924Z,3.80
2023-11-21T22:27:21.712Z,4.35
2023-11-21T22:29:48.348Z,4.35
2023-11-21T22:32:15.257Z,4.32
2023-11-21T22:34:42.165Z,4.38
2023-11-21T22:37:10.581Z,4.40
2023-11-21T22:39:37.199Z,4.90
2023-11-21T22:42:04.828Z,4.20
2023-11-21T22:44:31.634Z,5.00
2023-11-21T22:47:01.475Z,4.93
2023-11-21T22:49:31.495Z,4.68
2023-11-21T22:51:59.003Z,4.95
2023-11-21T22:54:26.158Z,4.55
2023-11-21T22:56:52.782Z,4.97
2023-11-21T22:59:22.457Z,5.90
2023-11-21T23:01:51.427Z,5.55
2023-11-21T23:04:21.909Z,5.90
2023-11-21T23:06:49.522Z,5.38
2023-11-21T23:09:17.540Z,5.85
2023-11-21T23:11:45.148Z,5.45
2023-11-21T23:14:12.316Z,5.93
2023-11-21T23:16:42.644Z,5.85
2023-11-21T23:19:16.370Z,5.45
2023-11-21T23:21:44.102Z,5.53
2023-11-21T23:24:12.209Z,6.15
2023-11-21T23:26:40.215Z,5.28
2023-11-21T23:29:08.119Z,5.00
2023-11-21T23:31:36.168Z,6.10
2023-11-21T23:34:03.888Z,5.93
2023-11-21T23:36:31.477Z,5.50
2023-11-21T23:38:58.394Z,6.47
2023-11-21T23:41:25.153Z,6.40
2023-11-21T23:43:52.120Z,4.95
2023-11-21T23:46:19.341Z,5.65
2023-11-21T23:48:47.151Z,7.03
2023-11-21T23:51:14.452Z,6.50
2023-11-21T23:53:41.305Z,6.10
2023-11-21T23:56:08.381Z,6.18
2023-11-21T23:58:39.281Z,6.93
